Time;durP1;ratioP1;P1;durP2;ratioP2;P2;SDS_P1;SDS_P2;PMS_P1;PMS_P2;Temp;Humidity;BMP_temperature;BMP_pressure;BME280_temperature;BME280_humidity;BME280_pressure;Samples;Min_cycle;Max_cycle;Signal;HPM_P1;HPM_P2
2022/04/16 00:01:09;;;;;;;12.38;6.60;;;10.70;99.90;;;;;;5094955;28;20395;-38
2022/04/16 00:03:35;;;;;;;9.15;6.35;;;10.70;99.90;;;;;;5095559;28;20024;-39
2022/04/16 00:06:01;;;;;;;11.55;6.20;;;10.60;99.90;;;;;;5094349;28;20024;-39
2022/04/16 00:08:28;;;;;;;11.10;6.43;;;10.60;99.90;;;;;;5095073;28;20047;-38
2022/04/16 00:10:54;;;;;;;7.28;4.85;;;10.60;99.90;;;;;;5094072;28;20031;-38
2022/04/16 00:13:21;;;;;;;9.90;6.15;;;10.50;99.90;;;;;;5094652;28;20458;-38
2022/04/16 00:15:49;;;;;;;13.93;5.90;;;10.40;99.90;;;;;;5094434;28;20028;-35
2022/04/16 00:18:15;;;;;;;8.98;5.90;;;10.50;99.90;;;;;;5094029;28;20822;-35
2022/04/16 00:20:41;;;;;;;11.10;6.20;;;10.50;99.90;;;;;;5094912;28;20024;-41
2022/04/16 00:23:07;;;;;;;9.15;5.93;;;10.50;99.90;;;;;;5094250;28;20024;-38
2022/04/16 00:28:17;;;;;;;9.98;6.10;;;10.40;99.90;;;;;;5094705;28;20047;-38
2022/04/16 00:30:43;;;;;;;8.55;6.07;;;10.40;99.90;;;;;;5095441;28;20028;-37
2022/04/16 00:33:12;;;;;;;9.38;6.03;;;10.40;99.90;;;;;;5093904;28;20024;-37
2022/04/16 00:35:39;;;;;;;13.25;6.93;;;10.40;99.90;;;;;;5092768;28;20035;-36
2022/04/16 00:38:05;;;;;;;9.80;6.50;;;10.30;99.90;;;;;;5088685;28;20429;-35
2022/04/16 00:40:31;;;;;;;10.10;6.13;;;10.30;99.90;;;;;;5094992;28;20080;-37
2022/04/16 00:42:58;;;;;;;12.57;7.05;;;10.20;99.90;;;;;;5091223;28;20403;-38
2022/04/16 00:45:25;;;;;;;10.63;6.47;;;10.20;99.90;;;;;;5095115;28;20475;-51
2022/04/16 00:47:51;;;;;;;9.27;6.22;;;10.20;99.90;;;;;;5094858;28;20027;-37
2022/04/16 00:50:16;;;;;;;11.15;6.78;;;10.30;99.90;;;;;;5092571;28;20024;-37
2022/04/16 00:52:44;;;;;;;18.02;7.32;;;10.20;99.90;;;;;;5089717;28;20036;-37
2022/04/16 00:55:10;;;;;;;9.40;6.93;;;10.20;99.90;;;;;;5092437;28;20502;-38
2022/04/16 00:57:40;;;;;;;9.93;6.75;;;10.10;99.90;;;;;;5094292;28;20529;-37
2022/04/16 01:00:07;;;;;;;9.90;6.60;;;10.10;99.90;;;;;;5094672;28;20078;-37
2022/04/16 01:02:39;;;;;;;8.50;6.38;;;10.00;99.90;;;;;;5093611;28;20028;-38
2022/04/16 01:05:06;;;;;;;13.55;7.18;;;10.00;99.90;;;;;;5094262;28;20461;-36
2022/04/16 01:07:32;;;;;;;10.20;6.88;;;10.00;99.90;;;;;;5092406;28;20024;-38
2022/04/16 01:09:57;;;;;;;9.35;6.95;;;10.00;99.90;;;;;;5093588;28;20082;-38
2022/04/16 01:12:23;;;;;;;12.00;7.28;;;10.00;99.90;;;;;;5093339;28;20048;-38
2022/04/16 01:14:50;;;;;;;11.07;6.75;;;10.00;99.90;;;;;;5091999;28;20043;-35
2022/04/16 01:17:16;;;;;;;10.30;7.00;;;10.00;99.90;;;;;;5093148;28;20023;-37
2022/04/16 01:19:42;;;;;;;10.48;7.15;;;9.90;99.90;;;;;;5093295;28;20112;-38
2022/04/16 01:22:14;;;;;;;12.35;7.10;;;9.90;99.90;;;;;;5092220;28;20028;-37
2022/04/16 01:24:46;;;;;;;11.68;7.22;;;9.90;99.90;;;;;;5094018;28;20476;-38
2022/04/16 01:27:12;;;;;;;12.15;7.32;;;9.90;99.90;;;;;;5091508;28;20040;-39
2022/04/16 01:29:37;;;;;;;12.88;7.63;;;9.90;99.90;;;;;;5090801;28;20357;-38
2022/04/16 01:32:03;;;;;;;15.18;7.60;;;9.90;99.90;;;;;;5092735;28;20482;-38
2022/04/16 01:34:29;;;;;;;10.07;7.00;;;9.80;99.90;;;;;;5093842;28;20476;-38
2022/04/16 01:36:57;;;;;;;10.85;6.80;;;9.90;99.90;;;;;;5093700;28;20024;-39
2022/04/16 01:39:22;;;;;;;14.18;8.10;;;9.90;99.90;;;;;;5092397;28;20104;-38
2022/04/16 01:41:49;;;;;;;12.60;7.30;;;9.80;99.90;;;;;;5092682;28;20086;-38
2022/04/16 01:44:15;;;;;;;12.48;7.32;;;9.70;99.90;;;;;;5093178;28;20043;-37
2022/04/16 01:46:41;;;;;;;10.48;6.68;;;9.70;99.90;;;;;;5092659;28;20036;-39
2022/04/16 01:49:06;;;;;;;15.10;7.85;;;9.60;99.90;;;;;;5093415;28;20089;-37
2022/04/16 01:51:32;;;;;;;17.42;7.53;;;9.60;99.90;;;;;;5093263;28;20025;-37
2022/04/16 01:53:58;;;;;;;15.25;7.55;;;9.60;99.90;;;;;;5091958;28;20024;-38
2022/04/16 01:56:23;;;;;;;11.40;7.75;;;9.50;99.90;;;;;;5090903;28;20069;-38
2022/04/16 01:58:49;;;;;;;11.57;7.15;;;9.40;99.90;;;;;;5092719;28;20103;-37
2022/04/16 02:01:15;;;;;;;11.98;7.50;;;9.40;99.90;;;;;;5091235;28;20480;-38
2022/04/16 02:03:41;;;;;;;12.48;6.90;;;9.30;99.90;;;;;;5093410;28;20101;-37
2022/04/16 02:06:06;;;;;;;11.25;7.18;;;9.30;99.90;;;;;;5092981;28;20024;-36
2022/04/16 02:08:32;;;;;;;11.95;7.38;;;9.30;99.90;;;;;;5093707;28;20525;-38
2022/04/16 02:10:58;;;;;;;12.88;8.02;;;9.30;99.90;;;;;;5091923;28;20016;-36
2022/04/16 02:13:24;;;;;;;14.40;8.48;;;9.30;99.90;;;;;;5093482;28;20111;-37
2022/04/16 02:15:49;;;;;;;11.80;7.45;;;9.30;99.90;;;;;;5088429;28;20485;-36
2022/04/16 02:18:15;;;;;;;13.43;7.90;;;9.20;99.90;;;;;;5092440;28;20028;-43
2022/04/16 02:20:43;;;;;;;14.38;8.18;;;9.20;99.90;;;;;;5079764;28;20032;-36
2022/04/16 02:23:10;;;;;;;14.02;7.45;;;9.20;99.90;;;;;;5080375;28;20533;-35
2022/04/16 02:25:36;;;;;;;20.77;8.25;;;9.20;99.90;;;;;;5091713;28;20024;-36
2022/04/16 02:28:01;;;;;;;14.57;7.65;;;9.20;99.90;;;;;;5092638;28;20048;-37
2022/04/16 02:30:30;;;;;;;16.92;8.60;;;9.10;99.90;;;;;;5086102;28;20101;-36
2022/04/16 02:32:55;;;;;;;16.30;8.68;;;9.10;99.90;;;;;;5082132;28;20538;-36
2022/04/16 02:35:22;;;;;;;14.05;7.95;;;9.00;99.90;;;;;;5092563;28;20031;-37
2022/04/16 02:37:48;;;;;;;15.10;8.77;;;8.90;99.90;;;;;;5092408;28;20040;-37
2022/04/16 02:40:14;;;;;;;14.35;7.90;;;8.90;99.90;;;;;;5092317;28;20388;-37
2022/04/16 02:42:42;;;;;;;15.68;8.13;;;8.90;99.90;;;;;;5091445;28;20044;-38
2022/04/16 02:47:54;;;;;;;19.13;8.18;;;8.90;99.90;;;;;;5093512;28;19911;-37
2022/04/16 02:50:20;;;;;;;17.05;9.68;;;8.90;99.90;;;;;;5091747;28;20402;-38
2022/04/16 02:52:46;;;;;;;17.27;9.25;;;8.80;99.90;;;;;;5091963;28;20031;-38
2022/04/16 02:55:16;;;;;;;15.48;8.40;;;8.80;99.90;;;;;;5093019;28;20368;-38
2022/04/16 02:57:43;;;;;;;14.52;8.43;;;8.80;99.90;;;;;;5090677;28;20028;-37
2022/04/16 03:00:10;;;;;;;16.42;9.07;;;8.70;99.90;;;;;;5092800;28;20496;-37
2022/04/16 03:02:36;;;;;;;18.37;9.40;;;8.70;99.90;;;;;;5084105;28;20024;-38
2022/04/16 03:05:03;;;;;;;14.70;8.23;;;8.70;99.90;;;;;;5086501;28;20028;-38
2022/04/16 03:07:29;;;;;;;15.25;8.77;;;8.70;99.90;;;;;;5091702;28;20464;-38
2022/04/16 03:09:54;;;;;;;12.75;7.88;;;8.80;99.90;;;;;;5090744;28;20064;-38
2022/04/16 03:12:20;;;;;;;19.08;8.73;;;8.70;99.90;;;;;;5090242;28;20052;-39
2022/04/16 03:17:32;;;;;;;15.10;9.30;;;8.60;99.90;;;;;;5096624;28;20047;-44
2022/04/16 03:19:59;;;;;;;18.63;9.57;;;8.50;99.90;;;;;;5096270;28;20531;-38
2022/04/16 03:22:25;;;;;;;11.60;6.47;;;8.50;99.90;;;;;;5096544;28;20052;-38
2022/04/16 03:24:51;;;;;;;18.15;8.80;;;8.50;99.90;;;;;;5093547;28;20458;-44
2022/04/16 03:27:16;;;;;;;18.42;10.20;;;8.50;99.90;;;;;;5095227;28;20051;-37
2022/04/16 03:29:42;;;;;;;18.63;9.60;;;8.40;99.90;;;;;;5095268;28;20032;-37
2022/04/16 03:32:08;;;;;;;16.55;9.05;;;8.40;99.90;;;;;;5076750;28;20035;-35
2022/04/16 03:34:34;;;;;;;20.83;10.05;;;8.30;99.90;;;;;;5096054;28;20149;-38
2022/04/16 03:37:00;;;;;;;14.93;8.82;;;8.30;99.90;;;;;;5094837;28;20024;-36
2022/04/16 03:39:25;;;;;;;17.95;9.70;;;8.20;99.90;;;;;;5096510;28;20122;-38
2022/04/16 03:41:51;;;;;;;16.92;10.10;;;8.20;99.90;;;;;;5094926;28;20042;-37
2022/04/16 03:44:17;;;;;;;19.95;9.45;;;8.20;99.90;;;;;;5093445;28;20103;-36
2022/04/16 03:46:42;;;;;;;19.40;10.10;;;8.20;99.90;;;;;;5095228;28;20029;-37
2022/04/16 03:49:08;;;;;;;19.10;9.75;;;8.20;99.90;;;;;;5095995;28;20024;-36
2022/04/16 03:51:34;;;;;;;17.67;10.00;;;8.20;99.90;;;;;;5093883;28;20020;-46
2022/04/16 03:59:59;;;;;;;16.40;8.45;;;8.10;99.90;;;;;;5095085;28;20027;-36
2022/04/16 04:00:14;;;;;;;17.33;9.23;;;8.20;99.90;;;;;;5093997;28;20510;-37
2022/04/16 04:02:15;;;;;;;18.73;8.95;;;8.10;99.90;;;;;;5079166;28;20032;-38
2022/04/16 04:04:43;;;;;;;16.75;10.02;;;8.10;99.90;;;;;;5094530;28;20024;-38
2022/04/16 04:07:10;;;;;;;15.75;9.45;;;8.10;99.90;;;;;;5095598;28;20506;-36
2022/04/16 04:09:35;;;;;;;17.85;9.52;;;8.00;99.90;;;;;;5095076;28;20016;-36
2022/04/16 04:12:01;;;;;;;18.92;10.00;;;8.10;99.90;;;;;;5093864;28;20030;-39
2022/04/16 04:14:26;;;;;;;20.10;9.25;;;8.10;99.90;;;;;;5093116;28;20119;-36
2022/04/16 04:16:52;;;;;;;15.73;9.25;;;8.10;99.90;;;;;;5095492;28;20541;-38
2022/04/16 04:19:17;;;;;;;18.38;9.35;;;8.10;99.90;;;;;;5093491;28;20476;-36
2022/04/16 04:21:43;;;;;;;18.90;9.18;;;8.00;99.90;;;;;;5092865;28;20040;-38
2022/04/16 04:24:09;;;;;;;13.55;8.27;;;8.10;99.90;;;;;;5094850;28;20065;-37
2022/04/16 04:26:36;;;;;;;15.20;9.30;;;8.00;99.90;;;;;;5093791;28;20048;-36
2022/04/16 04:29:01;;;;;;;19.00;9.93;;;8.00;99.90;;;;;;5094389;28;20073;-36
2022/04/16 04:31:27;;;;;;;19.88;9.57;;;8.00;99.90;;;;;;5094182;28;20020;-37
2022/04/16 04:33:53;;;;;;;24.30;11.10;;;8.00;99.90;;;;;;5095414;28;20032;-38
2022/04/16 04:36:18;;;;;;;16.83;9.77;;;8.00;99.90;;;;;;5094152;28;20016;-38
2022/04/16 04:38:44;;;;;;;16.52;8.40;;;8.00;99.90;;;;;;5095095;28;20365;-44
2022/04/16 04:41:09;;;;;;;20.60;10.13;;;8.00;99.90;;;;;;5093110;28;20612;-36
2022/04/16 04:43:35;;;;;;;17.48;9.82;;;8.10;99.90;;;;;;5088781;28;20024;-38
2022/04/16 04:46:01;;;;;;;18.17;10.05;;;8.10;99.90;;;;;;5080892;28;20536;-36
2022/04/16 04:48:26;;;;;;;18.30;10.20;;;8.10;99.90;;;;;;5093778;28;20024;-38
2022/04/16 04:50:52;;;;;;;17.90;10.27;;;8.10;99.90;;;;;;5094546;28;20020;-37
2022/04/16 04:53:17;;;;;;;16.80;9.15;;;8.10;99.90;;;;;;5093091;28;20480;-37
2022/04/16 04:55:43;;;;;;;18.27;9.75;;;8.00;99.90;;;;;;5092771;28;20020;-37
2022/04/16 04:58:08;;;;;;;20.05;10.27;;;8.00;99.90;;;;;;5091655;28;20488;-39
2022/04/16 05:00:34;;;;;;;18.95;9.65;;;8.00;99.90;;;;;;5093414;28;20115;-37
2022/04/16 05:03:00;;;;;;;16.33;9.07;;;8.00;99.90;;;;;;5094200;28;20027;-39
2022/04/16 05:05:25;;;;;;;20.73;10.40;;;8.00;99.90;;;;;;5094828;28;20016;-38
2022/04/16 05:07:51;;;;;;;23.05;10.73;;;8.00;99.90;;;;;;5094795;28;20385;-38
2022/04/16 05:10:18;;;;;;;24.50;11.00;;;8.00;99.90;;;;;;5096143;28;20076;-38
2022/04/16 05:12:43;;;;;;;17.73;9.90;;;8.10;99.90;;;;;;5090464;28;20034;-38
2022/04/16 05:15:09;;;;;;;19.98;10.80;;;8.10;99.90;;;;;;5094281;28;20028;-37
2022/04/16 05:17:37;;;;;;;17.55;10.00;;;8.10;99.90;;;;;;5094335;28;20027;-36
2022/04/16 05:20:06;;;;;;;23.20;12.00;;;8.10;99.90;;;;;;5092867;28;20040;-37
2022/04/16 05:22:32;;;;;;;18.90;11.07;;;8.10;99.90;;;;;;5093756;28;20020;-37
2022/04/16 05:24:57;;;;;;;18.38;10.50;;;8.10;99.90;;;;;;5094088;28;20020;-42
2022/04/16 05:27:23;;;;;;;19.52;11.30;;;8.10;99.90;;;;;;5092420;28;20474;-37
2022/04/16 05:29:56;;;;;;;20.23;10.82;;;8.10;99.90;;;;;;5092774;28;20016;-38
2022/04/16 05:32:22;;;;;;;19.25;10.40;;;8.20;99.90;;;;;;5093231;28;20028;-38
2022/04/16 05:34:48;;;;;;;23.00;10.45;;;8.20;99.90;;;;;;5092374;28;20024;-38
2022/04/16 05:37:14;;;;;;;24.52;11.30;;;8.20;99.90;;;;;;5092714;28;20032;-38
2022/04/16 05:39:40;;;;;;;24.58;10.60;;;8.20;99.90;;;;;;5091926;28;20024;-36
2022/04/16 05:42:06;;;;;;;21.77;11.60;;;8.30;99.90;;;;;;5091776;28;20028;-38
2022/04/16 05:44:33;;;;;;;20.77;11.18;;;8.40;99.90;;;;;;5087948;28;20077;-38
2022/04/16 05:46:58;;;;;;;23.75;12.27;;;8.50;99.90;;;;;;5092874;28;20020;-41
2022/04/16 05:49:24;;;;;;;28.35;12.68;;;8.50;99.90;;;;;;5092872;28;20069;-37
2022/04/16 05:51:49;;;;;;;18.90;11.35;;;8.50;99.90;;;;;;5092428;28;20036;-37
2022/04/16 05:54:15;;;;;;;26.67;13.02;;;8.60;99.90;;;;;;5093688;28;20099;-38
2022/04/16 05:56:40;;;;;;;28.02;12.88;;;8.80;99.90;;;;;;5090613;28;20077;-37
2022/04/16 05:59:06;;;;;;;20.67;11.60;;;8.80;99.90;;;;;;5091920;28;20468;-37
2022/04/16 06:01:32;;;;;;;18.55;10.70;;;8.90;99.90;;;;;;5089293;28;20064;-37
2022/04/16 06:03:57;;;;;;;24.63;13.15;;;9.00;99.90;;;;;;5090956;28;20441;-38
2022/04/16 06:06:26;;;;;;;22.65;12.02;;;9.10;99.90;;;;;;5092684;28;20028;-38
2022/04/16 06:08:52;;;;;;;22.13;11.68;;;9.20;99.90;;;;;;5091381;28;20028;-37
2022/04/16 06:11:19;;;;;;;22.65;11.70;;;9.30;99.90;;;;;;5090033;28;20486;-36
2022/04/16 06:13:45;;;;;;;22.42;12.23;;;9.40;99.90;;;;;;5091641;28;20415;-37
2022/04/16 06:16:11;;;;;;;30.30;12.40;;;9.40;99.90;;;;;;5092575;28;20073;-39
2022/04/16 06:18:36;;;;;;;29.95;12.48;;;9.50;99.90;;;;;;5075492;28;20400;-46
2022/04/16 06:21:02;;;;;;;23.55;12.65;;;9.60;99.90;;;;;;5090378;28;20036;-36
2022/04/16 06:23:28;;;;;;;28.75;13.15;;;9.60;99.90;;;;;;5085761;28;20020;-38
2022/04/16 06:25:53;;;;;;;27.08;13.70;;;9.60;99.90;;;;;;5093281;28;20021;-38
2022/04/16 06:28:19;;;;;;;22.65;11.75;;;9.70;99.90;;;;;;5089177;28;20400;-41
2022/04/16 06:30:44;;;;;;;21.48;12.70;;;9.70;99.90;;;;;;5093508;28;20028;-37
2022/04/16 06:33:10;;;;;;;29.98;12.77;;;9.80;99.90;;;;;;5089616;28;20036;-36
2022/04/16 06:35:35;;;;;;;21.30;11.65;;;9.80;99.90;;;;;;5091906;28;20098;-37
2022/04/16 06:38:01;;;;;;;23.42;12.25;;;9.90;99.90;;;;;;5091299;28;20509;-37
2022/04/16 06:40:27;;;;;;;31.67;13.90;;;9.90;99.90;;;;;;5091225;28;20039;-37
2022/04/16 06:42:52;;;;;;;22.92;12.75;;;10.00;99.90;;;;;;5092454;28;20024;-35
2022/04/16 06:45:18;;;;;;;26.30;13.63;;;10.10;99.90;;;;;;5090841;28;20069;-38
2022/04/16 06:47:44;;;;;;;26.13;14.00;;;10.10;99.90;;;;;;5093061;28;20539;-38
2022/04/16 06:50:10;;;;;;;26.42;12.43;;;10.10;99.90;;;;;;5096133;28;20099;-36
2022/04/16 06:52:36;;;;;;;30.02;13.38;;;10.20;99.90;;;;;;5101601;28;20028;-37
2022/04/16 06:55:02;;;;;;;27.05;13.23;;;10.30;99.90;;;;;;5094927;28;20069;-37
2022/04/16 06:57:28;;;;;;;24.88;12.73;;;10.40;99.90;;;;;;5094322;28;20050;-36
2022/04/16 06:59:53;;;;;;;27.83;13.10;;;10.40;99.90;;;;;;5096665;28;20063;-39
2022/04/16 07:02:19;;;;;;;24.23;12.93;;;10.40;99.90;;;;;;5095193;28;20028;-36
2022/04/16 07:04:45;;;;;;;28.73;13.18;;;10.50;99.90;;;;;;5088313;28;20103;-36
2022/04/16 07:07:10;;;;;;;25.67;12.10;;;10.60;99.90;;;;;;5096049;28;20471;-36
2022/04/16 07:09:40;;;;;;;24.02;13.15;;;10.60;99.90;;;;;;5080423;28;20032;-38
2022/04/16 07:12:10;;;;;;;23.30;13.43;;;10.60;99.90;;;;;;5095378;28;20028;-42
2022/04/16 07:14:36;;;;;;;22.80;12.38;;;10.70;99.90;;;;;;5090420;28;20024;-34
2022/04/16 07:17:02;;;;;;;30.02;12.35;;;10.70;99.90;;;;;;5096674;28;20020;-38
2022/04/16 07:22:22;;;;;;;26.77;13.65;;;10.80;99.90;;;;;;5093365;28;20093;-32
2022/04/16 07:24:48;;;;;;;24.17;13.38;;;10.90;99.90;;;;;;5093987;28;20448;-36
2022/04/16 07:27:15;;;;;;;30.50;14.88;;;10.80;99.90;;;;;;5095911;28;20518;-37
2022/04/16 07:29:40;;;;;;;28.02;14.48;;;10.90;99.90;;;;;;5095917;28;20485;-41
2022/04/16 07:32:06;;;;;;;25.73;12.93;;;11.10;99.90;;;;;;5095033;28;20055;-37
2022/04/16 07:34:32;;;;;;;26.25;13.75;;;11.30;99.90;;;;;;5083531;28;20025;-41
2022/04/16 07:36:58;;;;;;;27.15;12.68;;;11.40;99.90;;;;;;5094927;28;20034;-36
2022/04/16 07:39:23;;;;;;;27.33;13.52;;;11.60;99.90;;;;;;5094797;28;20024;-37
2022/04/16 07:41:51;;;;;;;23.15;12.80;;;11.70;99.90;;;;;;5095265;28;20020;-38
2022/04/16 07:44:17;;;;;;;27.40;12.90;;;11.70;99.90;;;;;;5095873;28;20016;-37
2022/04/16 07:46:43;;;;;;;24.58;12.48;;;11.60;99.90;;;;;;5096183;28;20024;-39
2022/04/16 07:49:08;;;;;;;22.77;12.85;;;11.50;99.90;;;;;;5090591;28;20024;-40
2022/04/16 07:51:34;;;;;;;23.02;12.43;;;11.70;99.90;;;;;;5096093;28;20016;-38
2022/04/16 07:54:00;;;;;;;22.85;12.52;;;11.80;99.90;;;;;;5093377;28;20021;-47
2022/04/16 07:56:26;;;;;;;21.35;11.90;;;11.90;99.90;;;;;;5086754;28;20028;-37
2022/04/16 07:58:54;;;;;;;21.75;11.20;;;12.00;99.90;;;;;;5094928;28;20023;-38
2022/04/16 08:01:20;;;;;;;24.67;11.45;;;12.00;99.90;;;;;;5096016;28;20024;-39
2022/04/16 08:03:45;;;;;;;21.52;11.02;;;12.10;99.90;;;;;;5094209;28;20028;-38
2022/04/16 08:06:11;;;;;;;18.63;10.93;;;12.10;99.90;;;;;;5093700;28;20035;-39
2022/04/16 08:08:37;;;;;;;22.40;11.52;;;12.10;99.90;;;;;;5090837;28;20384;-37
2022/04/16 08:11:03;;;;;;;24.55;12.52;;;12.10;99.90;;;;;;5094804;28;20114;-36
2022/04/16 08:13:28;;;;;;;22.08;12.05;;;12.30;99.90;;;;;;5092674;28;20024;-37
2022/04/16 08:15:54;;;;;;;21.70;11.60;;;12.50;99.90;;;;;;5090872;28;20068;-37
2022/04/16 08:18:20;;;;;;;21.42;11.98;;;12.70;99.90;;;;;;5091466;28;20036;-38
2022/04/16 08:20:46;;;;;;;18.38;10.32;;;13.00;99.90;;;;;;5085559;28;20037;-39
2022/04/16 08:23:13;;;;;;;21.90;12.70;;;13.10;99.90;;;;;;5089087;28;20508;-36
2022/04/16 08:28:05;;;;;;;16.27;10.57;;;13.20;99.90;;;;;;5094189;28;20123;-39
2022/04/16 08:30:31;;;;;;;20.48;11.73;;;13.20;99.90;;;;;;5094654;28;20484;-38
2022/04/16 08:32:57;;;;;;;20.70;9.98;;;13.40;99.90;;;;;;5091379;28;20036;-37
2022/04/16 08:35:23;;;;;;;18.65;11.13;;;13.50;99.90;;;;;;5094050;28;20054;-36
2022/04/16 08:37:49;;;;;;;16.88;9.50;;;13.60;99.90;;;;;;5093061;28;20064;-37
2022/04/16 08:40:17;;;;;;;16.60;9.80;;;13.60;99.90;;;;;;5093614;28;20495;-37
2022/04/16 08:42:45;;;;;;;21.45;10.63;;;13.60;99.90;;;;;;5085976;28;20073;-43
2022/04/16 08:45:11;;;;;;;;;;;13.80;99.90;;;;;;5093339;28;20498;-37
2022/04/16 08:47:38;;;;;;;22.02;10.50;;;14.00;99.90;;;;;;5090061;28;19958;-38
2022/04/16 08:50:06;;;;;;;18.70;9.48;;;14.20;99.90;;;;;;5094738;28;20112;-42
2022/04/16 08:52:35;;;;;;;14.10;8.82;;;14.30;99.90;;;;;;5094655;28;20028;-37
2022/04/16 08:55:06;;;;;;;17.38;9.63;;;14.20;99.90;;;;;;5091934;28;20548;-37
2022/04/16 08:57:32;;;;;;;23.08;10.23;;;14.30;99.90;;;;;;5091302;28;20380;-38
2022/04/16 08:59:58;;;;;;;14.20;9.10;;;14.20;99.90;;;;;;5091798;28;20016;-38
2022/04/16 09:02:28;;;;;;;19.95;10.20;;;14.10;99.90;;;;;;5090541;28;20053;-36
2022/04/16 09:05:05;;;;;;;15.85;8.20;;;14.40;99.90;;;;;;5089971;28;20050;-37
2022/04/16 09:07:31;;;;;;;14.82;8.85;;;14.90;99.90;;;;;;5091488;28;20020;-35
2022/04/16 09:10:07;;;;;;;16.15;8.70;;;15.20;99.90;;;;;;5090312;28;20073;-36
2022/04/16 09:12:39;;;;;;;14.35;8.55;;;15.30;99.90;;;;;;5075836;28;20439;-38
2022/04/16 09:15:07;;;;;;;23.20;9.18;;;15.50;99.90;;;;;;5091206;28;20540;-36
2022/04/16 09:17:33;;;;;;;13.52;8.60;;;15.40;99.90;;;;;;5094573;28;20024;-38
2022/04/16 09:19:58;;;;;;;13.63;8.30;;;15.40;99.90;;;;;;5093955;28;20031;-37
2022/04/16 09:22:30;;;;;;;14.57;8.02;;;15.40;99.90;;;;;;5093985;28;20020;-38
2022/04/16 09:24:56;;;;;;;13.45;7.28;;;15.40;99.90;;;;;;5090152;28;20035;-38
2022/04/16 09:27:21;;;;;;;15.55;8.63;;;15.50;99.90;;;;;;5089558;28;20044;-36
2022/04/16 09:29:47;;;;;;;20.52;8.63;;;15.50;99.90;;;;;;5093021;28;20058;-38
2022/04/16 09:32:25;;;;;;;16.25;8.48;;;15.50;99.90;;;;;;5094054;28;20028;-38
2022/04/16 09:34:53;;;;;;;12.70;7.43;;;15.40;99.90;;;;;;5092865;28;20036;-37
2022/04/16 09:37:21;;;;;;;11.75;7.28;;;15.50;99.90;;;;;;5094116;28;20502;-36
2022/04/16 09:39:47;;;;;;;10.98;7.03;;;15.80;99.90;;;;;;5093889;28;20024;-38
2022/04/16 09:42:24;;;;;;;9.60;6.28;;;16.00;99.90;;;;;;5094048;28;20032;-38
2022/04/16 09:44:49;;;;;;;11.98;6.63;;;16.50;99.90;;;;;;5093318;28;20166;-37
2022/04/16 09:47:16;;;;;;;11.93;6.68;;;16.60;99.90;;;;;;5092824;28;20103;-38
2022/04/16 09:49:42;;;;;;;8.90;5.95;;;17.00;99.90;;;;;;5090380;28;20072;-39
2022/04/16 09:52:11;;;;;;;9.50;5.85;;;17.50;99.90;;;;;;5090671;28;20032;-38
2022/04/16 09:54:38;;;;;;;10.50;6.18;;;17.90;99.90;;;;;;5091439;28;20473;-38
2022/04/16 09:57:04;;;;;;;8.32;5.80;;;18.10;99.90;;;;;;5093575;28;20471;-38
2022/04/16 09:59:35;;;;;;;8.27;5.20;;;18.00;99.90;;;;;;5093468;28;20112;-38
2022/04/16 10:02:02;;;;;;;11.48;6.03;;;17.70;99.90;;;;;;5093375;28;20035;-38
2022/04/16 10:04:29;;;;;;;8.23;5.80;;;17.40;99.90;;;;;;5092218;28;20074;-38
2022/04/16 10:06:55;;;;;;;7.90;5.47;;;16.90;99.90;;;;;;5092208;28;20107;-38
2022/04/16 10:09:22;;;;;;;7.55;5.00;;;16.50;99.90;;;;;;5093289;28;20108;-37
2022/04/16 10:15:10;;;;;;;8.23;5.35;;;16.50;99.90;;;;;;5093532;28;20036;-38
2022/04/16 10:17:39;;;;;;;7.18;4.43;;;17.20;99.90;;;;;;5093493;28;20523;-39
2022/04/16 10:20:16;;;;;;;5.78;3.55;;;17.60;99.50;;;;;;5093529;28;20039;-38
2022/04/16 10:22:52;;;;;;;;;;;17.40;99.60;;;;;;5093512;28;20479;-36
2022/04/16 10:25:34;;;;;;;5.90;3.78;;;17.30;99.50;;;;;;5093538;28;19912;-42
2022/04/16 10:28:08;;;;;;;4.30;3.67;;;17.80;98.90;;;;;;5092936;28;20044;-39
2022/04/16 10:30:51;;;;;;;4.50;3.42;;;18.40;97.90;;;;;;5093254;28;20024;-40
2022/04/16 10:33:22;;;;;;;4.00;3.30;;;18.80;97.20;;;;;;5093511;28;20051;-43
2022/04/16 10:35:59;;;;;;;3.53;2.88;;;19.10;96.80;;;;;;5093233;28;20078;-43
2022/04/16 10:38:32;;;;;;;6.50;3.10;;;19.10;96.60;;;;;;5093157;28;20028;-42
2022/04/16 10:41:00;;;;;;;4.45;3.17;;;19.10;96.10;;;;;;5093124;28;20032;-41
2022/04/16 10:43:27;;;;;;;6.60;3.05;;;18.70;96.30;;;;;;5093218;28;20028;-38
2022/04/16 10:46:06;;;;;;;6.88;2.65;;;18.20;96.70;;;;;;5093100;28;20031;-39
2022/04/16 10:48:34;;;;;;;3.03;1.88;;;17.90;97.00;;;;;;5093339;28;20375;-38
2022/04/16 10:51:00;;;;;;;3.17;2.70;;;17.80;96.60;;;;;;5093056;28;20510;-37
2022/04/16 10:53:28;;;;;;;4.38;2.90;;;17.90;96.90;;;;;;5093322;28;20024;-39
2022/04/16 10:55:54;;;;;;;;;;;18.00;97.00;;;;;;5093264;28;20024;-38
2022/04/16 10:58:27;;;;;;;4.13;3.05;;;18.10;96.50;;;;;;5093038;28;19998;-36
2022/04/16 11:01:07;;;;;;;10.10;3.25;;;18.10;96.40;;;;;;5092930;28;20111;-38
2022/04/16 11:03:35;;;;;;;2.22;1.98;;;18.10;96.80;;;;;;5093074;28;20032;-39
2022/04/16 11:06:05;;;;;;;2.78;2.40;;;18.10;96.50;;;;;;5092875;28;20039;-39
2022/04/16 11:08:35;;;;;;;2.42;2.20;;;18.10;96.20;;;;;;5092838;28;20032;-39
2022/04/16 11:11:03;;;;;;;4.53;2.28;;;18.10;96.40;;;;;;5093112;28;20423;-37
2022/04/16 11:13:33;;;;;;;4.35;2.95;;;18.20;96.60;;;;;;5093094;28;20050;-38
2022/04/16 11:15:59;;;;;;;3.67;2.72;;;18.40;96.10;;;;;;5092627;28;20031;-37
2022/04/16 11:18:35;;;;;;;3.42;2.67;;;18.60;96.10;;;;;;5092737;28;20051;-37
2022/04/16 11:21:06;;;;;;;4.00;3.08;;;18.50;96.40;;;;;;5092772;28;20028;-37
2022/04/16 11:23:40;;;;;;;4.57;3.35;;;18.40;96.10;;;;;;5092647;28;20024;-38
2022/04/16 11:34:26;;;;;;;4.03;2.67;;;18.40;95.70;;;;;;5093383;28;20089;-37
2022/04/16 11:36:52;;;;;;;3.40;2.40;;;18.30;96.40;;;;;;5096310;28;20021;-38
2022/04/16 11:39:26;;;;;;;6.38;2.60;;;18.30;96.40;;;;;;5096326;28;20392;-44
2022/04/16 11:41:54;;;;;;;4.20;2.92;;;18.40;96.40;;;;;;5096046;28;20051;-49
2022/04/16 11:44:44;;;;;;;4.07;2.63;;;18.50;96.50;;;;;;5096213;28;20373;-37
2022/04/16 11:47:21;;;;;;;4.90;2.65;;;18.70;95.50;;;;;;5096102;28;20016;-39
2022/04/16 11:49:55;;;;;;;6.45;3.25;;;18.80;95.50;;;;;;5096091;28;20046;-38
2022/04/16 11:52:30;;;;;;;4.07;2.35;;;18.80;95.20;;;;;;5096093;28;20506;-43
2022/04/16 11:55:13;;;;;;;4.93;2.40;;;18.70;95.20;;;;;;5095806;28;20024;-38
2022/04/16 11:57:45;;;;;;;4.40;3.22;;;18.60;94.50;;;;;;5095930;28;20024;-38
2022/04/16 12:00:11;;;;;;;5.68;2.50;;;18.40;95.40;;;;;;5095988;28;20201;-38
2022/04/16 12:02:38;;;;;;;4.90;3.50;;;18.50;95.60;;;;;;5095613;28;20024;-38
2022/04/16 12:05:08;;;;;;;3.38;2.60;;;18.70;95.20;;;;;;5095820;28;20028;-38
2022/04/16 12:07:34;;;;;;;3.72;3.08;;;18.60;95.50;;;;;;5095950;28;20103;-37
2022/04/16 12:10:02;;;;;;;5.10;3.05;;;18.70;95.80;;;;;;5095577;28;20066;-39
2022/04/16 12:12:28;;;;;;;;;;;18.70;94.80;;;;;;5096118;28;20111;-50
2022/04/16 12:14:54;;;;;;;4.53;2.65;;;18.70;94.80;;;;;;5095905;28;19904;-39
2022/04/16 12:17:24;;;;;;;3.90;2.72;;;18.70;95.40;;;;;;5095568;28;20085;-38
2022/04/16 12:20:10;;;;;;;3.75;2.80;;;18.80;95.00;;;;;;5095705;28;20028;-38
2022/04/16 12:22:55;;;;;;;4.32;3.15;;;18.80;95.00;;;;;;5095191;28;20107;-38
2022/04/16 12:25:25;;;;;;;3.63;3.08;;;18.90;95.10;;;;;;5095297;28;20591;-38
2022/04/16 12:27:59;;;;;;;6.05;3.40;;;19.00;94.90;;;;;;5095179;28;20546;-49
2022/04/16 12:30:31;;;;;;;4.90;3.83;;;19.10;94.70;;;;;;5095515;28;20027;-36
2022/04/16 12:33:10;;;;;;;4.18;3.25;;;19.00;94.50;;;;;;5095501;28;20073;-40
2022/04/16 12:35:47;;;;;;;4.80;3.70;;;19.10;94.80;;;;;;5095051;28;20038;-37
2022/04/16 12:38:15;;;;;;;4.05;3.33;;;19.20;95.20;;;;;;5095184;28;20059;-39
2022/04/16 12:40:42;;;;;;;4.28;3.15;;;19.30;94.70;;;;;;5095006;28;20077;-38
2022/04/16 12:43:08;;;;;;;3.93;3.30;;;19.40;94.10;;;;;;5095034;28;20024;-37
2022/04/16 12:45:33;;;;;;;3.88;3.33;;;19.20;94.10;;;;;;5094605;28;20270;-38
2022/04/16 12:47:59;;;;;;;8.27;3.38;;;19.20;94.30;;;;;;5095144;28;20425;-41
2022/04/16 12:50:26;;;;;;;4.53;3.55;;;19.20;94.80;;;;;;5094800;28;20032;-37
2022/04/16 12:52:52;;;;;;;3.45;2.70;;;19.20;94.30;;;;;;5095070;28;20496;-39
2022/04/16 12:55:18;;;;;;;5.25;3.10;;;19.30;94.30;;;;;;5094749;28;20067;-40
2022/04/16 13:00:28;;;;;;;4.93;2.97;;;19.50;93.90;;;;;;5094974;28;20047;-42
2022/04/16 13:02:53;;;;;;;4.53;3.05;;;19.60;93.90;;;;;;5094366;28;20478;-37
2022/04/16 13:05:19;;;;;;;6.80;2.85;;;19.60;94.20;;;;;;5094465;28;20024;-37
2022/04/16 13:07:46;;;;;;;4.22;3.53;;;19.70;94.40;;;;;;5094848;28;20107;-38
2022/04/16 13:10:13;;;;;;;3.33;2.80;;;19.80;93.70;;;;;;5094673;28;20098;-38
2022/04/16 13:12:39;;;;;;;5.53;3.05;;;20.00;93.10;;;;;;5094419;28;20032;-39